sensor_id;sensor_type;location;lat;lon;timestamp;temperature;humidity
76857;DHT22;69705;44.686;37.628;2023-07-31T00:01:55;20.99;75.46
76857;DHT22;69705;44.686;37.628;2023-07-31T00:04:22;21.06;75.20
76857;DHT22;69705;44.686;37.628;2023-07-31T00:06:48;21.09;75.12
76857;DHT22;69705;44.686;37.628;2023-07-31T00:09:15;21.10;75.27
76857;DHT22;69705;44.686;37.628;2023-07-31T00:11:42;21.13;75.02
76857;DHT22;69705;44.686;37.628;2023-07-31T00:14:09;21.19;74.66
76857;DHT22;69705;44.686;37.628;2023-07-31T00:16:36;21.20;74.84
76857;DHT22;69705;44.686;37.628;2023-07-31T00:19:03;21.19;75.05
76857;DHT22;69705;44.686;37.628;2023-07-31T00:21:29;21.19;75.21
76857;DHT22;69705;44.686;37.628;2023-07-31T00:23:56;21.19;75.50
76857;DHT22;69705;44.686;37.628;2023-07-31T00:26:23;21.23;75.72
76857;DHT22;69705;44.686;37.628;2023-07-31T00:28:50;21.23;75.44
76857;DHT22;69705;44.686;37.628;2023-07-31T00:31:17;21.20;75.40
76857;DHT22;69705;44.686;37.628;2023-07-31T00:33:43;21.19;75.55
76857;DHT22;69705;44.686;37.628;2023-07-31T00:36:10;21.20;75.90
76857;DHT22;69705;44.686;37.628;2023-07-31T00:38:37;21.21;75.91
76857;DHT22;69705;44.686;37.628;2023-07-31T00:41:04;21.19;76.28
76857;DHT22;69705;44.686;37.628;2023-07-31T00:43:31;21.24;76.04
76857;DHT22;69705;44.686;37.628;2023-07-31T00:45:58;21.24;76.37
76857;DHT22;69705;44.686;37.628;2023-07-31T00:48:25;21.25;75.99
76857;DHT22;69705;44.686;37.628;2023-07-31T00:50:52;21.25;76.50
76857;DHT22;69705;44.686;37.628;2023-07-31T00:53:19;21.29;76.44
76857;DHT22;69705;44.686;37.628;2023-07-31T00:55:46;21.27;76.79
76857;DHT22;69705;44.686;37.628;2023-07-31T00:58:13;21.25;76.92
76857;DHT22;69705;44.686;37.628;2023-07-31T01:00:40;21.29;76.85
76857;DHT22;69705;44.686;37.628;2023-07-31T01:03:07;21.31;77.02
76857;DHT22;69705;44.686;37.628;2023-07-31T01:08:54;21.27;77.64
76857;DHT22;69705;44.686;37.628;2023-07-31T01:11:32;21.27;78.26
76857;DHT22;69705;44.686;37.628;2023-07-31T01:14:00;21.23;78.61
76857;DHT22;69705;44.686;37.628;2023-07-31T01:16:27;21.23;78.93
76857;DHT22;69705;44.686;37.628;2023-07-31T01:18:54;21.21;79.06
76857;DHT22;69705;44.686;37.628;2023-07-31T01:21:47;21.19;79.30
76857;DHT22;69705;44.686;37.628;2023-07-31T01:24:20;21.14;79.54
76857;DHT22;69705;44.686;37.628;2023-07-31T01:26:56;21.18;79.98
76857;DHT22;69705;44.686;37.628;2023-07-31T01:32:04;21.19;80.51
76857;DHT22;69705;44.686;37.628;2023-07-31T01:34:32;21.17;80.98
76857;DHT22;69705;44.686;37.628;2023-07-31T01:37:00;21.21;81.33
76857;DHT22;69705;44.686;37.628;2023-07-31T01:39:26;21.23;81.28
76857;DHT22;69705;44.686;37.628;2023-07-31T01:41:53;21.30;81.13
76857;DHT22;69705;44.686;37.628;2023-07-31T01:44:21;21.34;81.59
76857;DHT22;69705;44.686;37.628;2023-07-31T01:46:48;21.38;81.38
76857;DHT22;69705;44.686;37.628;2023-07-31T01:49:15;21.47;80.98
76857;DHT22;69705;44.686;37.628;2023-07-31T01:51:42;21.52;80.91
76857;DHT22;69705;44.686;37.628;2023-07-31T01:54:09;21.55;80.73
76857;DHT22;69705;44.686;37.628;2023-07-31T01:56:36;21.61;80.14
76857;DHT22;69705;44.686;37.628;2023-07-31T01:59:03;21.64;80.27
76857;DHT22;69705;44.686;37.628;2023-07-31T02:01:29;21.66;79.91
76857;DHT22;69705;44.686;37.628;2023-07-31T02:03:56;21.72;79.21
76857;DHT22;69705;44.686;37.628;2023-07-31T02:06:24;21.74;79.17
76857;DHT22;69705;44.686;37.628;2023-07-31T02:08:51;21.78;78.07
76857;DHT22;69705;44.686;37.628;2023-07-31T02:11:18;21.82;77.76
76857;DHT22;69705;44.686;37.628;2023-07-31T02:13:45;21.84;77.80
76857;DHT22;69705;44.686;37.628;2023-07-31T02:16:11;21.89;77.67
76857;DHT22;69705;44.686;37.628;2023-07-31T02:18:38;21.91;77.20
76857;DHT22;69705;44.686;37.628;2023-07-31T02:21:05;21.98;76.92
76857;DHT22;69705;44.686;37.628;2023-07-31T02:23:32;22.04;76.58
76857;DHT22;69705;44.686;37.628;2023-07-31T02:25:59;22.08;76.63
76857;DHT22;69705;44.686;37.628;2023-07-31T02:28:26;22.09;75.91
76857;DHT22;69705;44.686;37.628;2023-07-31T02:30:53;22.13;76.02
76857;DHT22;69705;44.686;37.628;2023-07-31T02:33:20;22.11;75.99
76857;DHT22;69705;44.686;37.628;2023-07-31T02:35:47;22.10;76.13
76857;DHT22;69705;44.686;37.628;2023-07-31T02:38:14;22.02;76.52
76857;DHT22;69705;44.686;37.628;2023-07-31T02:40:41;21.99;76.58
76857;DHT22;69705;44.686;37.628;2023-07-31T02:43:09;21.93;76.91
76857;DHT22;69705;44.686;37.628;2023-07-31T02:45:36;21.87;76.99
76857;DHT22;69705;44.686;37.628;2023-07-31T02:48:03;21.78;77.39
76857;DHT22;69705;44.686;37.628;2023-07-31T02:50:30;21.69;77.09
76857;DHT22;69705;44.686;37.628;2023-07-31T02:52:58;21.68;77.15
76857;DHT22;69705;44.686;37.628;2023-07-31T02:55:25;21.64;77.16
76857;DHT22;69705;44.686;37.628;2023-07-31T02:57:52;21.64;77.11
76857;DHT22;69705;44.686;37.628;2023-07-31T03:00:19;21.62;77.24
76857;DHT22;69705;44.686;37.628;2023-07-31T03:02:46;21.60;77.55
76857;DHT22;69705;44.686;37.628;2023-07-31T03:05:13;21.62;77.31
76857;DHT22;69705;44.686;37.628;2023-07-31T03:07:40;21.61;77.51
76857;DHT22;69705;44.686;37.628;2023-07-31T03:10:07;21.65;77.59
76857;DHT22;69705;44.686;37.628;2023-07-31T03:12:34;21.68;77.66
76857;DHT22;69705;44.686;37.628;2023-07-31T03:15:01;21.69;77.88
76857;DHT22;69705;44.686;37.628;2023-07-31T03:17:28;21.74;77.67
76857;DHT22;69705;44.686;37.628;2023-07-31T03:19:55;21.82;77.69
76857;DHT22;69705;44.686;37.628;2023-07-31T03:22:22;21.89;77.31
76857;DHT22;69705;44.686;37.628;2023-07-31T03:24:49;21.94;77.35
76857;DHT22;69705;44.686;37.628;2023-07-31T03:27:16;22.03;76.85
76857;DHT22;69705;44.686;37.628;2023-07-31T03:29:43;22.05;77.01
76857;DHT22;69705;44.686;37.628;2023-07-31T03:32:10;22.13;76.01
76857;DHT22;69705;44.686;37.628;2023-07-31T03:34:37;22.21;75.90
76857;DHT22;69705;44.686;37.628;2023-07-31T03:37:06;22.29;74.26
76857;DHT22;69705;44.686;37.628;2023-07-31T03:39:33;22.37;74.80
76857;DHT22;69705;44.686;37.628;2023-07-31T03:42:00;22.48;74.00
76857;DHT22;69705;44.686;37.628;2023-07-31T03:44:29;22.57;73.71
76857;DHT22;69705;44.686;37.628;2023-07-31T03:46:56;22.67;73.27
76857;DHT22;69705;44.686;37.628;2023-07-31T03:49:23;22.78;73.02
76857;DHT22;69705;44.686;37.628;2023-07-31T03:51:50;22.90;73.06
76857;DHT22;69705;44.686;37.628;2023-07-31T03:54:16;22.98;71.79
76857;DHT22;69705;44.686;37.628;2023-07-31T03:56:43;23.13;71.29
76857;DHT22;69705;44.686;37.628;2023-07-31T03:59:10;23.25;71.38
76857;DHT22;69705;44.686;37.628;2023-07-31T04:01:37;23.36;70.19
76857;DHT22;69705;44.686;37.628;2023-07-31T04:04:04;23.45;69.94
76857;DHT22;69705;44.686;37.628;2023-07-31T04:06:31;23.54;70.73
76857;DHT22;69705;44.686;37.628;2023-07-31T04:08:58;23.67;69.46
76857;DHT22;69705;44.686;37.628;2023-07-31T04:11:25;23.73;69.43
76857;DHT22;69705;44.686;37.628;2023-07-31T04:13:52;23.83;68.97
76857;DHT22;69705;44.686;37.628;2023-07-31T04:16:19;23.92;68.46
76857;DHT22;69705;44.686;37.628;2023-07-31T04:18:46;23.98;68.49
76857;DHT22;69705;44.686;37.628;2023-07-31T04:21:13;24.08;67.61
76857;DHT22;69705;44.686;37.628;2023-07-31T04:23:40;24.15;67.21
76857;DHT22;69705;44.686;37.628;2023-07-31T04:26:07;24.21;67.18
76857;DHT22;69705;44.686;37.628;2023-07-31T04:28:33;24.30;66.53
76857;DHT22;69705;44.686;37.628;2023-07-31T04:31:00;24.36;66.72
76857;DHT22;69705;44.686;37.628;2023-07-31T04:33:27;24.43;66.51
76857;DHT22;69705;44.686;37.628;2023-07-31T04:35:54;24.48;65.82
76857;DHT22;69705;44.686;37.628;2023-07-31T04:38:22;24.56;65.56
76857;DHT22;69705;44.686;37.628;2023-07-31T04:40:49;24.63;65.75
76857;DHT22;69705;44.686;37.628;2023-07-31T04:43:16;24.71;64.80
76857;DHT22;69705;44.686;37.628;2023-07-31T04:45:46;24.77;65.59
76857;DHT22;69705;44.686;37.628;2023-07-31T04:48:14;24.89;64.08
76857;DHT22;69705;44.686;37.628;2023-07-31T04:50:41;24.98;64.57
76857;DHT22;69705;44.686;37.628;2023-07-31T04:53:08;25.06;65.04
76857;DHT22;69705;44.686;37.628;2023-07-31T04:55:35;25.15;64.57
76857;DHT22;69705;44.686;37.628;2023-07-31T04:58:02;25.23;64.14
76857;DHT22;69705;44.686;37.628;2023-07-31T05:00:30;25.35;60.56
76857;DHT22;69705;44.686;37.628;2023-07-31T05:02:57;25.49;61.73
76857;DHT22;69705;44.686;37.628;2023-07-31T05:05:24;25.59;61.72
76857;DHT22;69705;44.686;37.628;2023-07-31T05:07:50;25.69;61.19
76857;DHT22;69705;44.686;37.628;2023-07-31T05:10:17;25.81;60.73
76857;DHT22;69705;44.686;37.628;2023-07-31T05:12:44;25.91;59.32
76857;DHT22;69705;44.686;37.628;2023-07-31T05:15:11;25.99;61.13
76857;DHT22;69705;44.686;37.628;2023-07-31T05:17:38;26.10;59.69
76857;DHT22;69705;44.686;37.628;2023-07-31T05:20:06;26.21;60.66
76857;DHT22;69705;44.686;37.628;2023-07-31T05:22:33;26.38;59.19
76857;DHT22;69705;44.686;37.628;2023-07-31T05:25:00;26.49;58.49
76857;DHT22;69705;44.686;37.628;2023-07-31T05:27:26;26.53;59.72
76857;DHT22;69705;44.686;37.628;2023-07-31T05:29:53;26.70;55.93
76857;DHT22;69705;44.686;37.628;2023-07-31T05:32:20;26.83;57.88
76857;DHT22;69705;44.686;37.628;2023-07-31T05:34:47;26.96;57.13
76857;DHT22;69705;44.686;37.628;2023-07-31T05:37:14;27.10;57.40
76857;DHT22;69705;44.686;37.628;2023-07-31T05:39:41;27.24;54.84
76857;DHT22;69705;44.686;37.628;2023-07-31T05:42:08;27.34;56.05
76857;DHT22;69705;44.686;37.628;2023-07-31T05:44:34;27.43;55.07
76857;DHT22;69705;44.686;37.628;2023-07-31T05:47:02;27.50;56.26
76857;DHT22;69705;44.686;37.628;2023-07-31T05:49:28;27.61;55.84
76857;DHT22;69705;44.686;37.628;2023-07-31T05:51:55;27.72;53.30
76857;DHT22;69705;44.686;37.628;2023-07-31T05:54:22;27.82;54.53
76857;DHT22;69705;44.686;37.628;2023-07-31T05:56:49;27.90;52.53
76857;DHT22;69705;44.686;37.628;2023-07-31T05:59:16;27.99;53.52
76857;DHT22;69705;44.686;37.628;2023-07-31T06:01:43;28.09;50.83
76857;DHT22;69705;44.686;37.628;2023-07-31T06:04:10;28.16;54.38
76857;DHT22;69705;44.686;37.628;2023-07-31T06:06:37;28.25;51.24
76857;DHT22;69705;44.686;37.628;2023-07-31T06:09:04;28.30;52.27
76857;DHT22;69705;44.686;37.628;2023-07-31T06:11:31;28.47;52.83
76857;DHT22;69705;44.686;37.628;2023-07-31T06:13:57;28.50;52.58
76857;DHT22;69705;44.686;37.628;2023-07-31T06:16:25;28.59;50.59
76857;DHT22;69705;44.686;37.628;2023-07-31T06:18:51;28.68;51.47
76857;DHT22;69705;44.686;37.628;2023-07-31T06:21:18;28.72;50.98
76857;DHT22;69705;44.686;37.628;2023-07-31T06:23:45;28.79;51.06
76857;DHT22;69705;44.686;37.628;2023-07-31T06:26:12;28.87;50.36
76857;DHT22;69705;44.686;37.628;2023-07-31T06:28:39;28.88;49.54
76857;DHT22;69705;44.686;37.628;2023-07-31T06:31:06;28.95;50.88
76857;DHT22;69705;44.686;37.628;2023-07-31T06:33:34;29.02;48.95
76857;DHT22;69705;44.686;37.628;2023-07-31T06:36:00;29.08;51.01
76857;DHT22;69705;44.686;37.628;2023-07-31T06:38:27;29.18;50.20
76857;DHT22;69705;44.686;37.628;2023-07-31T06:40:54;29.29;48.60
76857;DHT22;69705;44.686;37.628;2023-07-31T06:43:21;29.28;48.15
76857;DHT22;69705;44.686;37.628;2023-07-31T06:45:48;29.24;48.54
76857;DHT22;69705;44.686;37.628;2023-07-31T06:48:17;29.32;49.13
76857;DHT22;69705;44.686;37.628;2023-07-31T06:50:44;29.43;49.66
76857;DHT22;69705;44.686;37.628;2023-07-31T06:53:11;29.51;47.54
76857;DHT22;69705;44.686;37.628;2023-07-31T06:55:38;29.54;47.87
76857;DHT22;69705;44.686;37.628;2023-07-31T06:58:05;29.66;48.50
76857;DHT22;69705;44.686;37.628;2023-07-31T07:00:31;29.74;46.62
76857;DHT22;69705;44.686;37.628;2023-07-31T07:02:59;29.86;45.51
76857;DHT22;69705;44.686;37.628;2023-07-31T07:05:25;29.93;48.49
76857;DHT22;69705;44.686;37.628;2023-07-31T07:07:52;30.02;47.34
76857;DHT22;69705;44.686;37.628;2023-07-31T07:10:19;30.00;45.51
76857;DHT22;69705;44.686;37.628;2023-07-31T07:12:47;29.87;46.13
76857;DHT22;69705;44.686;37.628;2023-07-31T07:15:14;29.83;46.47
76857;DHT22;69705;44.686;37.628;2023-07-31T07:17:41;30.01;47.51
76857;DHT22;69705;44.686;37.628;2023-07-31T07:20:08;30.17;46.46
76857;DHT22;69705;44.686;37.628;2023-07-31T07:22:35;30.31;47.28
76857;DHT22;69705;44.686;37.628;2023-07-31T07:25:03;30.46;47.20
76857;DHT22;69705;44.686;37.628;2023-07-31T07:27:30;30.64;46.29
76857;DHT22;69705;44.686;37.628;2023-07-31T07:29:57;30.75;45.13
76857;DHT22;69705;44.686;37.628;2023-07-31T07:32:24;30.85;46.07
76857;DHT22;69705;44.686;37.628;2023-07-31T07:34:51;31.00;45.72
76857;DHT22;69705;44.686;37.628;2023-07-31T07:37:18;31.05;44.93
76857;DHT22;69705;44.686;37.628;2023-07-31T07:39:45;31.06;44.99
76857;DHT22;69705;44.686;37.628;2023-07-31T07:42:12;31.05;45.77
76857;DHT22;69705;44.686;37.628;2023-07-31T07:44:44;31.14;45.27
76857;DHT22;69705;44.686;37.628;2023-07-31T07:47:11;31.19;45.23
76857;DHT22;69705;44.686;37.628;2023-07-31T07:49:38;31.15;44.53
76857;DHT22;69705;44.686;37.628;2023-07-31T07:52:05;31.15;41.58
76857;DHT22;69705;44.686;37.628;2023-07-31T07:54:33;31.12;42.78
76857;DHT22;69705;44.686;37.628;2023-07-31T07:57:00;31.12;44.17
76857;DHT22;69705;44.686;37.628;2023-07-31T07:59:27;31.18;43.49
76857;DHT22;69705;44.686;37.628;2023-07-31T08:01:54;31.24;43.73
76857;DHT22;69705;44.686;37.628;2023-07-31T08:04:21;31.35;43.99
76857;DHT22;69705;44.686;37.628;2023-07-31T08:06:48;31.37;43.43
76857;DHT22;69705;44.686;37.628;2023-07-31T08:09:15;31.41;42.71
76857;DHT22;69705;44.686;37.628;2023-07-31T08:11:42;31.50;44.32
76857;DHT22;69705;44.686;37.628;2023-07-31T08:14:09;31.56;41.97
76857;DHT22;69705;44.686;37.628;2023-07-31T08:16:36;31.65;43.14
76857;DHT22;69705;44.686;37.628;2023-07-31T08:19:08;31.68;41.77
76857;DHT22;69705;44.686;37.628;2023-07-31T08:21:34;31.71;41.87
76857;DHT22;69705;44.686;37.628;2023-07-31T08:24:01;31.83;41.05
76857;DHT22;69705;44.686;37.628;2023-07-31T08:26:28;31.85;41.04
76857;DHT22;69705;44.686;37.628;2023-07-31T08:28:55;31.79;41.38
76857;DHT22;69705;44.686;37.628;2023-07-31T08:31:22;31.74;41.92
76857;DHT22;69705;44.686;37.628;2023-07-31T08:33:49;31.85;42.42
76857;DHT22;69705;44.686;37.628;2023-07-31T08:36:16;32.08;42.26
76857;DHT22;69705;44.686;37.628;2023-07-31T08:38:42;32.19;40.82
76857;DHT22;69705;44.686;37.628;2023-07-31T08:41:09;32.30;43.64
76857;DHT22;69705;44.686;37.628;2023-07-31T08:43:37;32.35;46.22
76857;DHT22;69705;44.686;37.628;2023-07-31T08:46:05;32.04;45.59
76857;DHT22;69705;44.686;37.628;2023-07-31T08:48:32;32.15;46.66
76857;DHT22;69705;44.686;37.628;2023-07-31T08:51:00;32.09;45.56
76857;DHT22;69705;44.686;37.628;2023-07-31T08:53:34;32.16;47.38
76857;DHT22;69705;44.686;37.628;2023-07-31T08:56:01;32.28;47.60
76857;DHT22;69705;44.686;37.628;2023-07-31T08:58:32;32.16;46.96
76857;DHT22;69705;44.686;37.628;2023-07-31T09:01:01;32.09;46.53
76857;DHT22;69705;44.686;37.628;2023-07-31T09:03:33;32.11;43.94
76857;DHT22;69705;44.686;37.628;2023-07-31T09:06:00;32.26;45.41
76857;DHT22;69705;44.686;37.628;2023-07-31T09:08:30;32.44;44.83
76857;DHT22;69705;44.686;37.628;2023-07-31T09:11:02;32.68;44.67
76857;DHT22;69705;44.686;37.628;2023-07-31T09:13:32;32.75;43.64
76857;DHT22;69705;44.686;37.628;2023-07-31T09:15:59;32.90;41.32
76857;DHT22;69705;44.686;37.628;2023-07-31T09:18:26;33.18;41.79
76857;DHT22;69705;44.686;37.628;2023-07-31T09:21:06;33.33;42.57
76857;DHT22;69705;44.686;37.628;2023-07-31T09:23:46;33.02;43.64
76857;DHT22;69705;44.686;37.628;2023-07-31T09:26:33;32.60;42.20
76857;DHT22;69705;44.686;37.628;2023-07-31T09:29:03;32.45;44.54
76857;DHT22;69705;44.686;37.628;2023-07-31T09:31:42;32.77;44.07
76857;DHT22;69705;44.686;37.628;2023-07-31T09:34:09;33.07;42.63
76857;DHT22;69705;44.686;37.628;2023-07-31T09:36:42;33.23;38.05
76857;DHT22;69705;44.686;37.628;2023-07-31T09:39:11;33.44;40.75
76857;DHT22;69705;44.686;37.628;2023-07-31T09:41:39;33.61;41.18
76857;DHT22;69705;44.686;37.628;2023-07-31T09:44:06;33.66;41.06
76857;DHT22;69705;44.686;37.628;2023-07-31T09:46:37;33.76;41.71
76857;DHT22;69705;44.686;37.628;2023-07-31T09:49:11;33.93;40.65
76857;DHT22;69705;44.686;37.628;2023-07-31T09:51:40;34.03;38.53
76857;DHT22;69705;44.686;37.628;2023-07-31T09:54:15;34.21;39.24
76857;DHT22;69705;44.686;37.628;2023-07-31T09:56:47;34.10;39.43
76857;DHT22;69705;44.686;37.628;2023-07-31T09:59:17;34.17;38.88
76857;DHT22;69705;44.686;37.628;2023-07-31T10:01:46;34.39;40.40
76857;DHT22;69705;44.686;37.628;2023-07-31T10:04:14;34.16;39.46
76857;DHT22;69705;44.686;37.628;2023-07-31T10:06:43;33.91;38.91
76857;DHT22;69705;44.686;37.628;2023-07-31T10:09:12;33.91;40.79
76857;DHT22;69705;44.686;37.628;2023-07-31T10:11:53;34.30;40.41
76857;DHT22;69705;44.686;37.628;2023-07-31T10:14:24;34.47;38.01
76857;DHT22;69705;44.686;37.628;2023-07-31T10:16:51;34.56;36.79
76857;DHT22;69705;44.686;37.628;2023-07-31T10:19:20;34.26;39.92
76857;DHT22;69705;44.686;37.628;2023-07-31T10:21:49;34.36;39.08
76857;DHT22;69705;44.686;37.628;2023-07-31T10:24:16;34.59;39.60
76857;DHT22;69705;44.686;37.628;2023-07-31T10:26:45;34.45;37.67
76857;DHT22;69705;44.686;37.628;2023-07-31T10:29:13;34.03;40.04
76857;DHT22;69705;44.686;37.628;2023-07-31T10:31:41;34.16;40.77
76857;DHT22;69705;44.686;37.628;2023-07-31T10:34:08;34.11;39.14
76857;DHT22;69705;44.686;37.628;2023-07-31T10:36:35;33.97;40.62
76857;DHT22;69705;44.686;37.628;2023-07-31T10:39:04;34.06;40.97
76857;DHT22;69705;44.686;37.628;2023-07-31T10:41:31;34.26;40.36
76857;DHT22;69705;44.686;37.628;2023-07-31T10:43:59;34.34;38.85
76857;DHT22;69705;44.686;37.628;2023-07-31T10:46:30;34.15;39.45
76857;DHT22;69705;44.686;37.628;2023-07-31T10:49:01;34.23;38.64
76857;DHT22;69705;44.686;37.628;2023-07-31T10:51:35;33.89;39.85
76857;DHT22;69705;44.686;37.628;2023-07-31T10:54:13;33.82;41.07
76857;DHT22;69705;44.686;37.628;2023-07-31T10:56:45;33.88;40.27
76857;DHT22;69705;44.686;37.628;2023-07-31T10:59:13;34.18;39.78
76857;DHT22;69705;44.686;37.628;2023-07-31T11:01:53;34.25;38.78
76857;DHT22;69705;44.686;37.628;2023-07-31T11:04:27;34.49;38.80
76857;DHT22;69705;44.686;37.628;2023-07-31T11:07:02;34.65;37.98
76857;DHT22;69705;44.686;37.628;2023-07-31T11:09:32;34.83;38.24
76857;DHT22;69705;44.686;37.628;2023-07-31T11:11:59;35.11;37.21
76857;DHT22;69705;44.686;37.628;2023-07-31T11:14:26;35.25;36.72
76857;DHT22;69705;44.686;37.628;2023-07-31T11:16:53;35.23;35.75
76857;DHT22;69705;44.686;37.628;2023-07-31T11:19:24;34.62;38.71
76857;DHT22;69705;44.686;37.628;2023-07-31T11:21:52;34.65;37.33
76857;DHT22;69705;44.686;37.628;2023-07-31T11:24:22;34.59;36.91
76857;DHT22;69705;44.686;37.628;2023-07-31T11:26:50;34.79;36.82
76857;DHT22;69705;44.686;37.628;2023-07-31T11:29:18;34.83;36.50
76857;DHT22;69705;44.686;37.628;2023-07-31T11:31:46;34.82;38.04
76857;DHT22;69705;44.686;37.628;2023-07-31T11:34:14;34.42;36.17
76857;DHT22;69705;44.686;37.628;2023-07-31T11:36:53;34.33;36.24
76857;DHT22;69705;44.686;37.628;2023-07-31T11:39:19;34.62;36.29
76857;DHT22;69705;44.686;37.628;2023-07-31T11:41:46;34.79;37.43
76857;DHT22;69705;44.686;37.628;2023-07-31T11:44:13;34.99;37.75
76857;DHT22;69705;44.686;37.628;2023-07-31T11:46:40;35.08;37.37
76857;DHT22;69705;44.686;37.628;2023-07-31T11:49:07;35.01;40.88
76857;DHT22;69705;44.686;37.628;2023-07-31T11:51:35;34.80;44.95
76857;DHT22;69705;44.686;37.628;2023-07-31T11:54:27;34.68;50.70
76857;DHT22;69705;44.686;37.628;2023-07-31T11:56:54;34.38;47.29
76857;DHT22;69705;44.686;37.628;2023-07-31T11:59:21;34.41;51.32
76857;DHT22;69705;44.686;37.628;2023-07-31T12:01:48;34.42;51.05
76857;DHT22;69705;44.686;37.628;2023-07-31T12:04:20;34.44;51.31
76857;DHT22;69705;44.686;37.628;2023-07-31T12:06:48;33.87;52.92
76857;DHT22;69705;44.686;37.628;2023-07-31T12:09:17;33.38;55.13
76857;DHT22;69705;44.686;37.628;2023-07-31T12:11:45;33.26;54.99
76857;DHT22;69705;44.686;37.628;2023-07-31T12:14:24;33.07;56.03
76857;DHT22;69705;44.686;37.628;2023-07-31T12:16:55;33.02;55.66
76857;DHT22;69705;44.686;37.628;2023-07-31T12:19:23;32.98;55.39
76857;DHT22;69705;44.686;37.628;2023-07-31T12:21:55;32.94;55.89
76857;DHT22;69705;44.686;37.628;2023-07-31T12:24:23;32.82;56.52
76857;DHT22;69705;44.686;37.628;2023-07-31T12:26:50;32.81;55.98
76857;DHT22;69705;44.686;37.628;2023-07-31T12:29:18;32.73;55.37
76857;DHT22;69705;44.686;37.628;2023-07-31T12:31:50;32.49;55.48
76857;DHT22;69705;44.686;37.628;2023-07-31T12:34:18;32.55;55.86
76857;DHT22;69705;44.686;37.628;2023-07-31T12:36:45;32.60;54.62
76857;DHT22;69705;44.686;37.628;2023-07-31T12:39:12;32.45;54.17
76857;DHT22;69705;44.686;37.628;2023-07-31T12:41:40;32.31;54.97
76857;DHT22;69705;44.686;37.628;2023-07-31T12:44:11;32.23;53.93
76857;DHT22;69705;44.686;37.628;2023-07-31T12:46:38;32.08;55.52
76857;DHT22;69705;44.686;37.628;2023-07-31T12:49:05;32.10;55.42
76857;DHT22;69705;44.686;37.628;2023-07-31T12:51:31;32.17;55.17
76857;DHT22;69705;44.686;37.628;2023-07-31T12:53:58;32.10;55.41
76857;DHT22;69705;44.686;37.628;2023-07-31T12:56:25;32.14;55.37
76857;DHT22;69705;44.686;37.628;2023-07-31T12:58:52;32.18;55.25
76857;DHT22;69705;44.686;37.628;2023-07-31T13:01:19;32.22;53.95
76857;DHT22;69705;44.686;37.628;2023-07-31T13:03:46;32.22;54.37
76857;DHT22;69705;44.686;37.628;2023-07-31T13:06:13;32.28;53.78
76857;DHT22;69705;44.686;37.628;2023-07-31T13:08:40;32.32;53.73
76857;DHT22;69705;44.686;37.628;2023-07-31T13:11:07;32.32;53.16
76857;DHT22;69705;44.686;37.628;2023-07-31T13:13:33;32.18;53.50
76857;DHT22;69705;44.686;37.628;2023-07-31T13:16:00;32.05;54.13
76857;DHT22;69705;44.686;37.628;2023-07-31T13:18:28;32.00;53.81
76857;DHT22;69705;44.686;37.628;2023-07-31T13:20:55;31.95;54.00
76857;DHT22;69705;44.686;37.628;2023-07-31T13:23:22;31.88;54.63
76857;DHT22;69705;44.686;37.628;2023-07-31T13:25:49;31.78;55.30
76857;DHT22;69705;44.686;37.628;2023-07-31T13:28:16;31.84;54.90
76857;DHT22;69705;44.686;37.628;2023-07-31T13:30:43;31.79;54.88
76857;DHT22;69705;44.686;37.628;2023-07-31T13:33:10;31.84;55.36
76857;DHT22;69705;44.686;37.628;2023-07-31T13:35:36;31.83;55.46
76857;DHT22;69705;44.686;37.628;2023-07-31T13:38:03;31.95;55.06
76857;DHT22;69705;44.686;37.628;2023-07-31T13:40:30;31.89;55.26
76857;DHT22;69705;44.686;37.628;2023-07-31T13:42:57;31.71;55.87
76857;DHT22;69705;44.686;37.628;2023-07-31T13:45:24;31.50;56.55
76857;DHT22;69705;44.686;37.628;2023-07-31T13:47:51;31.38;57.39
76857;DHT22;69705;44.686;37.628;2023-07-31T13:50:18;31.26;57.71
76857;DHT22;69705;44.686;37.628;2023-07-31T13:52:47;31.01;59.14
76857;DHT22;69705;44.686;37.628;2023-07-31T13:55:14;30.72;60.54
76857;DHT22;69705;44.686;37.628;2023-07-31T13:57:41;30.55;61.68
76857;DHT22;69705;44.686;37.628;2023-07-31T14:00:09;30.47;62.05
76857;DHT22;69705;44.686;37.628;2023-07-31T14:02:36;30.50;62.29
76857;DHT22;69705;44.686;37.628;2023-07-31T14:05:03;30.52;62.12
76857;DHT22;69705;44.686;37.628;2023-07-31T14:07:31;30.61;61.92
76857;DHT22;69705;44.686;37.628;2023-07-31T14:09:58;30.79;61.62
76857;DHT22;69705;44.686;37.628;2023-07-31T14:12:26;30.98;61.29
76857;DHT22;69705;44.686;37.628;2023-07-31T14:14:53;31.12;60.12
76857;DHT22;69705;44.686;37.628;2023-07-31T14:17:20;31.15;60.08
76857;DHT22;69705;44.686;37.628;2023-07-31T14:19:46;31.00;59.97
76857;DHT22;69705;44.686;37.628;2023-07-31T14:22:13;30.86;60.38
76857;DHT22;69705;44.686;37.628;2023-07-31T14:24:40;30.72;60.75
76857;DHT22;69705;44.686;37.628;2023-07-31T14:27:07;30.53;61.34
76857;DHT22;69705;44.686;37.628;2023-07-31T14:29:35;30.47;60.99
76857;DHT22;69705;44.686;37.628;2023-07-31T14:32:02;30.33;62.31
76857;DHT22;69705;44.686;37.628;2023-07-31T14:34:29;30.25;62.51
76857;DHT22;69705;44.686;37.628;2023-07-31T14:36:56;30.31;62.86
76857;DHT22;69705;44.686;37.628;2023-07-31T14:39:23;30.11;64.05
76857;DHT22;69705;44.686;37.628;2023-07-31T14:41:50;29.95;63.81
76857;DHT22;69705;44.686;37.628;2023-07-31T14:44:17;29.92;64.08
76857;DHT22;69705;44.686;37.628;2023-07-31T14:46:44;29.78;65.33
76857;DHT22;69705;44.686;37.628;2023-07-31T14:49:11;29.70;66.15
76857;DHT22;69705;44.686;37.628;2023-07-31T14:51:38;29.59;65.88
76857;DHT22;69705;44.686;37.628;2023-07-31T14:54:05;29.51;66.19
76857;DHT22;69705;44.686;37.628;2023-07-31T14:56:32;29.51;66.01
76857;DHT22;69705;44.686;37.628;2023-07-31T14:58:59;29.44;66.04
76857;DHT22;69705;44.686;37.628;2023-07-31T15:01:26;29.41;65.85
76857;DHT22;69705;44.686;37.628;2023-07-31T15:03:53;29.37;65.53
76857;DHT22;69705;44.686;37.628;2023-07-31T15:06:20;29.37;64.92
76857;DHT22;69705;44.686;37.628;2023-07-31T15:08:47;29.26;64.50
76857;DHT22;69705;44.686;37.628;2023-07-31T15:11:14;29.24;64.79
76857;DHT22;69705;44.686;37.628;2023-07-31T15:13:43;29.23;63.80
76857;DHT22;69705;44.686;37.628;2023-07-31T15:16:10;29.21;63.99
76857;DHT22;69705;44.686;37.628;2023-07-31T15:18:37;29.12;64.60
76857;DHT22;69705;44.686;37.628;2023-07-31T15:21:04;29.04;66.13
76857;DHT22;69705;44.686;37.628;2023-07-31T15:23:33;28.98;65.21
76857;DHT22;69705;44.686;37.628;2023-07-31T15:26:00;29.00;66.06